createdAt,value
2023-05-25T00:01:05.005Z,3.08
2023-05-25T00:03:32.571Z,3.22
2023-05-25T00:06:01.767Z,3.10
2023-05-25T00:08:29.690Z,3.17
2023-05-25T00:10:56.989Z,3.70
2023-05-25T00:13:24.054Z,3.92
2023-05-25T00:15:51.240Z,3.63
2023-05-25T00:18:18.895Z,3.80
2023-05-25T00:20:47.696Z,3.40
2023-05-25T00:23:14.958Z,3.60
2023-05-25T00:25:42.249Z,3.60
2023-05-25T00:28:10.792Z,3.55
2023-05-25T00:30:37.811Z,3.88
2023-05-25T00:33:04.990Z,3.90
2023-05-25T00:35:32.037Z,3.88
2023-05-25T00:37:59.071Z,3.60
2023-05-25T00:40:26.179Z,3.53
2023-05-25T00:42:53.699Z,3.30
2023-05-25T00:45:20.920Z,3.47
2023-05-25T00:47:51.951Z,3.78
2023-05-25T00:50:27.118Z,3.58
2023-05-25T00:52:54.560Z,3.15
2023-05-25T00:55:23.649Z,3.65
2023-05-25T00:57:53.650Z,3.17
2023-05-25T01:00:21.373Z,3.42
2023-05-25T01:02:53.295Z,3.13
2023-05-25T01:05:21.859Z,3.35
2023-05-25T01:07:50.653Z,3.67
2023-05-25T01:10:22.295Z,3.40
2023-05-25T01:12:53.459Z,3.45
2023-05-25T01:15:20.983Z,3.38
2023-05-25T01:17:54.176Z,3.90
2023-05-25T01:20:21.349Z,3.35
2023-05-25T01:22:56.197Z,3.70
2023-05-25T01:25:38.347Z,3.78
2023-05-25T01:28:15.665Z,3.63
2023-05-25T01:30:45.827Z,3.60
2023-05-25T01:33:14.316Z,3.33
2023-05-25T01:35:42.446Z,3.33
2023-05-25T01:38:10.288Z,3.28
2023-05-25T01:40:40.205Z,3.60
2023-05-25T01:43:07.178Z,3.60
2023-05-25T01:45:34.676Z,3.70
2023-05-25T01:48:13.631Z,3.40
2023-05-25T01:51:16.507Z,3.63
2023-05-25T01:53:49.084Z,4.13
2023-05-25T01:56:17.292Z,4.15
2023-05-25T01:58:47.443Z,3.85
2023-05-25T02:01:17.211Z,3.78
2023-05-25T02:03:49.113Z,3.60
2023-05-25T02:06:16.969Z,3.58
2023-05-25T02:08:45.792Z,3.67
2023-05-25T02:11:16.433Z,3.42
2023-05-25T02:13:45.255Z,3.67
2023-05-25T02:16:12.298Z,3.60
2023-05-25T02:18:44.843Z,3.75
2023-05-25T02:21:12.423Z,3.25
2023-05-25T02:23:39.397Z,3.45
2023-05-25T02:26:06.596Z,4.45
2023-05-25T02:28:34.300Z,3.97
2023-05-25T02:31:01.616Z,4.25
2023-05-25T02:33:28.704Z,3.72
2023-05-25T02:35:57.572Z,4.18
2023-05-25T02:38:24.698Z,3.97
2023-05-25T02:40:51.751Z,3.75
2023-05-25T02:43:20.819Z,3.53
2023-05-25T02:45:47.828Z,4.20
2023-05-25T02:48:14.964Z,3.88
2023-05-25T02:50:42.129Z,4.15
2023-05-25T02:53:13.839Z,3.60
2023-05-25T02:55:43.832Z,4.05
2023-05-25T02:58:16.846Z,3.90
2023-05-25T03:00:55.291Z,4.18
2023-05-25T03:03:22.412Z,3.67
2023-05-25T03:05:49.411Z,3.88
2023-05-25T03:08:17.277Z,3.72
2023-05-25T03:10:44.584Z,4.07
2023-05-25T03:13:12.166Z,3.95
2023-05-25T03:15:40.261Z,4.53
2023-05-25T03:18:07.456Z,3.92
2023-05-25T03:20:37.949Z,3.72
2023-05-25T03:23:05.132Z,3.90
2023-05-25T03:25:33.563Z,3.90
2023-05-25T03:28:01.584Z,3.75
2023-05-25T03:30:29.756Z,3.95
2023-05-25T03:32:56.885Z,3.55
2023-05-25T03:35:26.381Z,3.80
2023-05-25T03:37:54.194Z,4.00
2023-05-25T03:40:21.302Z,4.13
2023-05-25T03:42:48.470Z,3.83
2023-05-25T03:45:15.726Z,4.18
2023-05-25T03:47:43.291Z,4.22
2023-05-25T03:50:11.462Z,3.45
2023-05-25T03:52:38.476Z,3.78
2023-05-25T03:55:06.057Z,4.00
2023-05-25T03:57:33.065Z,4.32
2023-05-25T04:00:00.049Z,3.78
2023-05-25T04:02:28.399Z,3.88
2023-05-25T04:04:57.481Z,4.07
2023-05-25T04:07:27.911Z,3.97
2023-05-25T04:09:55.179Z,4.00
2023-05-25T04:12:22.395Z,4.18
2023-05-25T04:14:49.435Z,4.28
2023-05-25T04:17:19.090Z,4.07
2023-05-25T04:19:46.560Z,3.97
2023-05-25T04:22:13.672Z,5.28
2023-05-25T04:24:41.691Z,4.70
2023-05-25T04:27:08.793Z,5.15
2023-05-25T04:29:37.467Z,5.20
2023-05-25T04:32:18.775Z,4.70
2023-05-25T04:34:50.965Z,4.85
2023-05-25T04:37:37.208Z,5.10
2023-05-25T04:40:11.292Z,5.18
2023-05-25T04:42:40.144Z,4.95
2023-05-25T04:45:12.016Z,5.25
2023-05-25T04:47:41.309Z,5.40
2023-05-25T04:50:11.013Z,5.68
2023-05-25T04:52:38.430Z,5.88
2023-05-25T04:55:06.206Z,5.80
2023-05-25T04:57:36.213Z,6.00
2023-05-25T05:00:03.936Z,6.00
2023-05-25T05:02:31.133Z,5.93
2023-05-25T05:04:59.143Z,5.95
2023-05-25T05:07:26.295Z,5.40
2023-05-25T05:09:53.461Z,6.38
2023-05-25T05:12:21.016Z,5.93
2023-05-25T05:14:51.246Z,5.72
2023-05-25T05:17:18.660Z,6.60
2023-05-25T05:19:46.001Z,5.82
2023-05-25T05:22:16.126Z,6.40
2023-05-25T05:24:45.096Z,6.72
2023-05-25T05:27:16.481Z,6.53
2023-05-25T05:29:47.148Z,6.40
2023-05-25T05:32:14.827Z,5.88
2023-05-25T05:34:41.987Z,5.63
2023-05-25T05:37:19.969Z,6.18
2023-05-25T05:39:47.317Z,5.97
2023-05-25T05:42:14.491Z,5.90
2023-05-25T05:44:41.519Z,5.65
2023-05-25T05:47:08.669Z,5.15
2023-05-25T05:49:37.952Z,5.72
2023-05-25T05:52:06.794Z,5.95
2023-05-25T05:54:34.240Z,5.07
2023-05-25T05:57:07.376Z,5.60
2023-05-25T05:59:34.576Z,4.70
2023-05-25T06:02:01.762Z,5.15
2023-05-25T06:04:29.241Z,5.25
2023-05-25T06:06:59.187Z,6.00
2023-05-25T06:09:26.676Z,5.28
2023-05-25T06:11:59.230Z,5.22
2023-05-25T06:14:28.610Z,5.25
2023-05-25T06:16:58.884Z,5.63
2023-05-25T06:19:26.202Z,4.35
2023-05-25T06:21:53.260Z,4.90
2023-05-25T06:24:21.448Z,5.15
2023-05-25T06:26:48.580Z,4.82
2023-05-25T06:29:17.265Z,5.00
2023-05-25T06:31:44.929Z,5.10
2023-05-25T06:34:12.908Z,5.57
2023-05-25T06:36:41.774Z,5.05
2023-05-25T06:39:10.279Z,5.30
2023-05-25T06:41:38.936Z,5.25
2023-05-25T06:44:06.652Z,5.30
2023-05-25T06:46:41.545Z,4.80
2023-05-25T06:49:09.560Z,5.55
2023-05-25T06:51:37.340Z,5.25
2023-05-25T06:54:04.534Z,5.70
2023-05-25T06:56:31.683Z,4.97
2023-05-25T06:58:58.906Z,4.97
2023-05-25T07:01:26.195Z,6.50
2023-05-25T07:03:53.202Z,6.03
2023-05-25T07:06:20.874Z,6.50
2023-05-25T07:08:48.158Z,5.57
2023-05-25T07:11:15.787Z,5.07
2023-05-25T07:13:42.852Z,4.85
2023-05-25T07:16:09.869Z,4.80
2023-05-25T07:18:40.842Z,4.88
2023-05-25T07:21:10.189Z,4.95
2023-05-25T07:23:38.471Z,4.78
2023-05-25T07:26:06.164Z,4.63
2023-05-25T07:28:33.476Z,4.30
2023-05-25T07:31:00.532Z,3.95
2023-05-25T07:33:27.674Z,4.35
2023-05-25T07:35:54.695Z,4.35
2023-05-25T07:38:22.010Z,4.15
2023-05-25T07:40:50.111Z,3.75
2023-05-25T07:43:17.167Z,3.42
2023-05-25T07:45:44.456Z,4.15
2023-05-25T07:48:11.835Z,3.58
2023-05-25T07:50:38.911Z,3.55
2023-05-25T07:53:05.976Z,3.30
2023-05-25T07:55:33.133Z,3.33
2023-05-25T07:58:00.349Z,3.63
2023-05-25T08:00:27.968Z,3.58
2023-05-25T08:02:56.363Z,3.38
2023-05-25T08:05:25.562Z,3.80
2023-05-25T08:07:52.542Z,3.50
2023-05-25T08:10:19.746Z,3.25
2023-05-25T08:12:49.579Z,3.30
2023-05-25T08:15:17.589Z,3.45
2023-05-25T08:17:45.013Z,3.50
2023-05-25T08:20:12.676Z,3.38
2023-05-25T08:22:39.774Z,3.28
2023-05-25T08:25:08.424Z,3.28
2023-05-25T08:27:36.453Z,3.08
2023-05-25T08:30:06.093Z,3.20
2023-05-25T08:32:35.344Z,3.70
2023-05-25T08:35:03.696Z,3.47
2023-05-25T08:37:32.337Z,3.20
2023-05-25T08:40:02.959Z,3.33
2023-05-25T08:42:30.359Z,3.60
2023-05-25T08:44:57.482Z,3.53
2023-05-25T08:47:25.003Z,3.75
2023-05-25T08:49:55.469Z,3.53
2023-05-25T08:52:26.620Z,3.50
2023-05-25T08:55:00.908Z,3.20
2023-05-25T08:57:41.083Z,3.20
2023-05-25T09:00:11.219Z,3.28
2023-05-25T09:03:18.130Z,3.10
2023-05-25T09:05:46.520Z,3.40
2023-05-25T09:08:14.738Z,3.88
2023-05-25T09:10:42.292Z,3.30
2023-05-25T09:13:21.097Z,3.75
2023-05-25T09:15:49.994Z,3.58
2023-05-25T09:18:17.150Z,2.92
2023-05-25T09:20:46.433Z,3.30
2023-05-25T09:23:15.961Z,3.55
2023-05-25T09:25:44.672Z,3.00
2023-05-25T09:30:42.061Z,3.58
2023-05-25T09:33:18.244Z,3.85
2023-05-25T09:35:46.652Z,3.42
2023-05-25T09:38:15.737Z,4.20
2023-05-25T09:40:43.686Z,3.50
2023-05-25T09:43:24.838Z,2.83
2023-05-25T09:46:01.450Z,3.20
2023-05-25T09:48:29.690Z,3.63
2023-05-25T09:50:57.493Z,3.65
2023-05-25T09:53:25.136Z,3.63
2023-05-25T09:55:54.306Z,3.08
2023-05-25T09:58:25.831Z,3.05
2023-05-25T10:00:56.239Z,3.40
2023-05-25T10:03:23.473Z,3.33
2023-05-25T10:05:51.960Z,3.20
2023-05-25T10:08:21.947Z,3.10
2023-05-25T10:10:50.293Z,2.45
2023-05-25T10:13:27.412Z,2.97
2023-05-25T10:15:55.114Z,3.28
2023-05-25T10:18:26.330Z,3.40
2023-05-25T10:21:00.917Z,3.17
2023-05-25T10:23:31.862Z,3.50
2023-05-25T10:26:00.600Z,2.95
2023-05-25T10:28:36.062Z,2.83
2023-05-25T10:31:04.291Z,2.70
2023-05-25T10:33:32.685Z,3.40
2023-05-25T10:36:10.027Z,3.17
2023-05-25T10:38:40.586Z,3.53
2023-05-25T10:41:10.493Z,3.42
2023-05-25T10:43:41.336Z,2.97
2023-05-25T10:46:08.937Z,2.90
2023-05-25T10:48:40.212Z,3.17
2023-05-25T10:51:09.379Z,2.88
2023-05-25T10:53:38.916Z,3.22
2023-05-25T10:56:10.871Z,2.53
2023-05-25T10:58:42.938Z,2.80
2023-05-25T11:01:12.624Z,3.00
2023-05-25T11:03:56.708Z,2.92
2023-05-25T11:06:48.023Z,2.90
2023-05-25T11:09:29.387Z,2.65
2023-05-25T11:11:56.355Z,3.00
2023-05-25T11:14:30.137Z,3.20
2023-05-25T11:17:15.201Z,3.15
2023-05-25T11:19:44.030Z,3.35
2023-05-25T11:22:19.295Z,3.13
2023-05-25T11:27:21.922Z,2.90
2023-05-25T11:29:52.985Z,3.13
2023-05-25T11:32:21.382Z,3.45
2023-05-25T11:34:48.920Z,2.95
2023-05-25T11:37:23.508Z,2.85
2023-05-25T11:39:52.140Z,3.30
2023-05-25T11:42:27.888Z,2.90
2023-05-25T11:44:55.636Z,2.90
2023-05-25T11:47:25.066Z,2.47
2023-05-25T11:49:55.299Z,2.95
2023-05-25T11:52:23.434Z,3.15
2023-05-25T11:54:50.511Z,2.70
2023-05-25T11:57:26.883Z,2.60
2023-05-25T12:00:01.243Z,3.00
2023-05-25T12:02:37.216Z,2.78
2023-05-25T12:05:04.877Z,2.65
2023-05-25T12:07:32.146Z,2.88
2023-05-25T12:10:07.438Z,2.67
2023-05-25T12:12:46.540Z,2.80
2023-05-25T12:15:24.543Z,2.58
2023-05-25T12:17:52.658Z,2.60
2023-05-25T12:20:21.600Z,3.28
2023-05-25T12:22:49.397Z,3.00
2023-05-25T12:25:21.523Z,2.70
2023-05-25T12:27:48.924Z,2.78
2023-05-25T12:30:16.294Z,2.65
2023-05-25T12:33:02.808Z,2.70
2023-05-25T12:35:43.882Z,2.90
2023-05-25T12:38:15.762Z,2.63
2023-05-25T12:40:43.128Z,2.80
2023-05-25T12:43:14.870Z,3.08
2023-05-25T12:45:45.177Z,2.50
2023-05-25T12:48:12.780Z,2.92
2023-05-25T12:50:56.496Z,2.40
2023-05-25T12:53:23.611Z,2.63
2023-05-25T12:55:50.678Z,2.90
2023-05-25T12:58:30.680Z,2.55
2023-05-25T13:00:58.149Z,2.72
2023-05-25T13:03:25.242Z,2.92
2023-05-25T13:06:00.548Z,2.83
2023-05-25T13:08:29.189Z,2.80
2023-05-25T13:10:56.674Z,3.20
2023-05-25T13:13:24.797Z,3.05
2023-05-25T13:15:53.393Z,2.67
2023-05-25T13:18:20.497Z,2.63
2023-05-25T13:20:50.454Z,2.65
2023-05-25T13:23:18.967Z,3.00
2023-05-25T13:25:47.060Z,2.55
2023-05-25T13:28:13.949Z,3.05
2023-05-25T13:30:42.623Z,2.83
2023-05-25T13:33:10.973Z,2.72
2023-05-25T13:35:42.439Z,2.92
2023-05-25T13:38:11.029Z,3.08
2023-05-25T13:40:38.308Z,2.90
2023-05-25T13:43:05.469Z,2.38
2023-05-25T13:45:32.463Z,3.22
2023-05-25T13:47:59.726Z,3.03
2023-05-25T13:50:27.275Z,3.20
2023-05-25T13:52:54.490Z,3.30
2023-05-25T13:55:22.845Z,2.85
2023-05-25T13:57:49.842Z,2.80
2023-05-25T14:00:17.083Z,3.13
2023-05-25T14:02:44.347Z,3.20
2023-05-25T14:05:11.469Z,2.95
2023-05-25T14:07:39.866Z,2.70
2023-05-25T14:10:08.331Z,2.88
2023-05-25T14:12:36.845Z,3.05
2023-05-25T14:15:04.319Z,2.60
2023-05-25T14:17:31.476Z,3.45
2023-05-25T14:19:59.118Z,2.70
2023-05-25T14:22:27.990Z,3.10
2023-05-25T14:24:56.903Z,3.10
2023-05-25T14:27:24.116Z,3.05
2023-05-25T14:29:51.831Z,2.90
2023-05-25T14:32:19.821Z,2.78
2023-05-25T14:34:46.952Z,2.95
2023-05-25T14:37:14.038Z,3.03
2023-05-25T14:39:41.188Z,2.92
2023-05-25T14:42:08.323Z,2.47
2023-05-25T14:44:35.537Z,2.70
2023-05-25T14:47:03.109Z,2.95
2023-05-25T14:49:30.258Z,3.03
2023-05-25T14:51:57.415Z,3.05
2023-05-25T14:54:24.562Z,3.13
2023-05-25T14:56:51.679Z,3.10
2023-05-25T14:59:19.454Z,3.30
2023-05-25T15:01:46.850Z,3.50
2023-05-25T15:04:14.388Z,4.07
2023-05-25T15:06:42.783Z,3.15
2023-05-25T15:09:09.894Z,3.10
2023-05-25T15:11:36.987Z,2.88
2023-05-25T15:14:04.175Z,3.15
2023-05-25T15:16:31.877Z,3.42
2023-05-25T15:19:00.059Z,2.50
2023-05-25T15:21:27.439Z,2.90
2023-05-25T15:23:54.349Z,2.92
2023-05-25T15:26:21.712Z,3.10
2023-05-25T15:28:48.720Z,3.05
2023-05-25T15:31:16.927Z,3.00
2023-05-25T15:33:56.300Z,3.20
2023-05-25T15:36:25.587Z,6.43
2023-05-25T15:38:52.739Z,4.63
2023-05-25T15:41:19.718Z,4.07
2023-05-25T15:43:58.559Z,3.50
2023-05-25T15:46:26.045Z,3.42
2023-05-25T15:48:54.279Z,3.38
2023-05-25T15:51:21.617Z,3.25
2023-05-25T15:53:49.237Z,3.25
2023-05-25T15:56:17.076Z,3.67
2023-05-25T15:58:47.203Z,3.00
2023-05-25T16:01:14.492Z,3.20
2023-05-25T16:03:43.253Z,2.90
2023-05-25T16:06:11.171Z,3.55
2023-05-25T16:08:38.188Z,2.95
2023-05-25T16:11:05.532Z,3.53
2023-05-25T16:13:32.607Z,3.08
2023-05-25T16:15:59.629Z,3.10
2023-05-25T16:18:26.748Z,2.90
2023-05-25T16:20:57.712Z,2.83
2023-05-25T16:23:25.231Z,3.50
2023-05-25T16:25:52.334Z,3.03
2023-05-25T16:28:20.438Z,2.83
2023-05-25T16:30:47.600Z,3.53
2023-05-25T16:33:14.921Z,3.22
2023-05-25T16:35:42.220Z,3.22
2023-05-25T16:38:09.360Z,2.70
2023-05-25T16:40:37.183Z,2.92
2023-05-25T16:43:04.261Z,2.83
2023-05-25T16:45:31.391Z,2.80
2023-05-25T16:47:58.437Z,3.22
2023-05-25T16:50:25.668Z,2.78
2023-05-25T16:52:52.881Z,2.83
2023-05-25T16:55:19.883Z,3.17
2023-05-25T16:57:46.935Z,2.90
2023-05-25T17:00:14.497Z,2.60
2023-05-25T17:02:42.605Z,3.13
2023-05-25T17:05:10.109Z,3.20
2023-05-25T17:07:38.009Z,2.92
2023-05-25T17:10:07.106Z,2.90
2023-05-25T17:12:34.215Z,3.20
2023-05-25T17:15:01.236Z,3.25
2023-05-25T17:17:28.914Z,2.72
2023-05-25T17:19:56.003Z,3.35
2023-05-25T17:22:23.361Z,3.25
2023-05-25T17:24:50.574Z,2.88
2023-05-25T17:27:19.607Z,2.60
2023-05-25T17:29:46.790Z,3.85
2023-05-25T17:32:14.012Z,8.50
2023-05-25T17:34:42.129Z,11.00
2023-05-25T17:37:09.312Z,4.70
2023-05-25T17:39:36.738Z,3.65
2023-05-25T17:42:06.810Z,2.95
2023-05-25T17:44:33.935Z,3.13
2023-05-25T17:47:01.038Z,2.95
2023-05-25T17:49:28.089Z,3.70
2023-05-25T17:51:55.194Z,3.40
2023-05-25T17:54:25.909Z,2.92
2023-05-25T17:56:53.821Z,2.67
2023-05-25T17:59:20.942Z,3.33
2023-05-25T18:01:48.055Z,2.97
2023-05-25T18:04:15.458Z,2.90
2023-05-25T18:06:42.936Z,3.15
2023-05-25T18:09:10.030Z,3.33
2023-05-25T18:11:37.121Z,3.00
2023-05-25T18:14:07.959Z,3.05
2023-05-25T18:16:39.713Z,2.67
2023-05-25T18:19:07.247Z,2.63
2023-05-25T18:21:34.391Z,2.67
2023-05-25T18:24:01.466Z,2.83
2023-05-25T18:26:28.639Z,3.10
2023-05-25T18:28:55.992Z,3.05
2023-05-25T18:31:23.182Z,2.60
2023-05-25T18:33:50.331Z,2.70
2023-05-25T18:36:17.447Z,2.83
2023-05-25T18:38:44.560Z,2.90
2023-05-25T18:41:11.615Z,2.72
2023-05-25T18:43:38.666Z,2.78
2023-05-25T18:46:05.731Z,2.65
2023-05-25T18:48:32.915Z,2.65
2023-05-25T18:51:00.906Z,2.75
2023-05-25T18:53:28.011Z,2.55
2023-05-25T18:55:55.195Z,2.95
2023-05-25T18:58:22.481Z,2.70
2023-05-25T19:00:49.589Z,3.13
2023-05-25T19:03:17.178Z,2.67
2023-05-25T19:05:45.714Z,2.88
2023-05-25T19:08:13.172Z,3.13
2023-05-25T19:10:41.798Z,2.50
2023-05-25T19:13:08.880Z,2.53
2023-05-25T19:15:36.321Z,3.00
2023-05-25T19:18:04.504Z,2.90
2023-05-25T19:20:35.677Z,2.65
2023-05-25T19:23:02.805Z,3.58
2023-05-25T19:25:30.119Z,2.70
2023-05-25T19:27:58.723Z,3.13
2023-05-25T19:30:25.976Z,2.85
2023-05-25T19:32:53.128Z,3.45
2023-05-25T19:35:20.236Z,2.92
2023-05-25T19:37:47.441Z,3.25
2023-05-25T19:40:14.446Z,2.97
2023-05-25T19:42:41.830Z,2.63
2023-05-25T19:45:09.267Z,3.00
2023-05-25T19:47:36.502Z,3.03
2023-05-25T19:50:03.674Z,3.35
2023-05-25T19:52:31.132Z,3.10
2023-05-25T19:55:04.836Z,3.60
2023-05-25T19:57:31.999Z,3.33
2023-05-25T20:00:00.294Z,3.60
2023-05-25T20:02:27.751Z,3.45
2023-05-25T20:04:55.001Z,3.97
2023-05-25T20:07:22.215Z,4.25
2023-05-25T20:09:49.394Z,4.68
2023-05-25T20:12:16.816Z,4.43
2023-05-25T20:14:44.173Z,4.05
2023-05-25T20:17:11.441Z,4.20
2023-05-25T20:19:39.107Z,3.85
2023-05-25T20:22:08.348Z,3.45
2023-05-25T20:24:35.927Z,3.30
2023-05-25T20:27:06.143Z,3.50
2023-05-25T20:29:34.003Z,3.35
2023-05-25T20:32:01.292Z,3.20
2023-05-25T20:34:28.318Z,2.92
2023-05-25T20:36:55.481Z,3.25
2023-05-25T20:39:23.548Z,3.42
2023-05-25T20:41:50.661Z,3.65
2023-05-25T20:44:17.844Z,3.38
2023-05-25T20:46:44.990Z,3.00
2023-05-25T20:49:12.054Z,2.90
2023-05-25T20:51:39.154Z,3.30
2023-05-25T20:54:06.422Z,3.20
2023-05-25T20:56:33.538Z,3.05
2023-05-25T20:59:00.429Z,3.15
2023-05-25T21:01:27.542Z,3.53
2023-05-25T21:03:54.668Z,4.00
2023-05-25T21:06:22.624Z,3.50
2023-05-25T21:08:49.928Z,3.40
2023-05-25T21:11:17.212Z,3.55
2023-05-25T21:13:44.302Z,3.40
2023-05-25T21:16:11.901Z,3.65
2023-05-25T21:18:38.952Z,3.30
2023-05-25T21:21:06.161Z,3.53
2023-05-25T21:23:33.213Z,3.55
2023-05-25T21:26:00.243Z,3.38
2023-05-25T21:28:27.280Z,3.50
2023-05-25T21:30:54.381Z,3.58
2023-05-25T21:33:22.246Z,3.40
2023-05-25T21:35:49.369Z,3.42
2023-05-25T21:38:16.408Z,3.35
2023-05-25T21:40:43.568Z,3.85
2023-05-25T21:43:10.869Z,3.90
2023-05-25T21:45:37.943Z,3.33
2023-05-25T21:48:05.127Z,3.35
2023-05-25T21:50:32.267Z,2.97
2023-05-25T21:52:59.242Z,3.40
2023-05-25T21:55:27.029Z,3.45
2023-05-25T21:57:54.068Z,3.75
2023-05-25T22:00:21.517Z,3.30
2023-05-25T22:02:48.961Z,3.45
2023-05-25T22:05:16.056Z,3.85
2023-05-25T22:07:43.298Z,3.85
2023-05-25T22:10:10.533Z,3.97
2023-05-25T22:12:37.556Z,3.78
2023-05-25T22:15:05.981Z,3.95
2023-05-25T22:17:33.031Z,3.65
2023-05-25T22:22:34.297Z,4.43
2023-05-25T22:25:01.474Z,3.55
2023-05-25T22:27:28.518Z,3.80
2023-05-25T22:29:55.684Z,3.35
2023-05-25T22:32:22.756Z,3.65
2023-05-25T22:34:49.865Z,3.83
2023-05-25T22:37:17.535Z,3.95
2023-05-25T22:39:44.732Z,3.42
2023-05-25T22:42:11.819Z,3.58
2023-05-25T22:44:39.031Z,4.05
2023-05-25T22:47:06.668Z,3.90
2023-05-25T22:49:42.041Z,4.00
2023-05-25T22:52:12.320Z,3.65
2023-05-25T22:54:39.335Z,4.28
2023-05-25T22:57:06.890Z,4.05
2023-05-25T22:59:33.914Z,3.78
2023-05-25T23:02:01.316Z,3.90
2023-05-25T23:04:28.497Z,4.40
2023-05-25T23:06:55.529Z,4.55
2023-05-25T23:09:22.989Z,3.80
2023-05-25T23:11:50.001Z,3.92
2023-05-25T23:14:17.087Z,3.88
2023-05-25T23:16:44.618Z,4.03
2023-05-25T23:19:11.752Z,3.58
2023-05-25T23:21:39.340Z,3.75
2023-05-25T23:24:06.727Z,3.67
2023-05-25T23:26:33.760Z,3.70
2023-05-25T23:29:01.322Z,4.05
2023-05-25T23:31:28.479Z,3.80
2023-05-25T23:33:56.060Z,3.28
2023-05-25T23:36:26.082Z,3.72
2023-05-25T23:38:53.316Z,3.65
2023-05-25T23:41:20.413Z,3.95
2023-05-25T23:43:48.056Z,3.88
2023-05-25T23:46:16.389Z,3.90
2023-05-25T23:48:44.774Z,4.10
2023-05-25T23:51:11.778Z,4.10
2023-05-25T23:53:39.190Z,3.88
2023-05-25T23:56:06.511Z,3.80
2023-05-25T23:58:33.643Z,4.18
